sensor_id;sensor_type;location;lat;lon;timestamp;pressure;altitude;pressure_sealevel;temperature;humidity
21185;BME280;18176;49.502;11.754;2023-03-03T00:01:43;97099.69;;;1.56;74.68
21185;BME280;18176;49.502;11.754;2023-03-03T00:05:43;97097.44;;;1.45;75.95
21185;BME280;18176;49.502;11.754;2023-03-03T00:09:44;97095.16;;;1.34;76.53
21185;BME280;18176;49.502;11.754;2023-03-03T00:13:51;97094.84;;;1.37;76.53
21185;BME280;18176;49.502;11.754;2023-03-03T00:17:53;97097.50;;;1.21;77.18
21185;BME280;18176;49.502;11.754;2023-03-03T00:21:57;97089.69;;;1.21;76.77
21185;BME280;18176;49.502;11.754;2023-03-03T00:25:58;97095.06;;;1.11;77.64
21185;BME280;18176;49.502;11.754;2023-03-03T00:30:05;97086.78;;;1.00;77.39
21185;BME280;18176;49.502;11.754;2023-03-03T00:34:24;97108.63;;;1.07;77.67
21185;BME280;18176;49.502;11.754;2023-03-03T00:38:27;97109.31;;;1.01;77.65
21185;BME280;18176;49.502;11.754;2023-03-03T00:42:28;97115.16;;;1.03;77.66
21185;BME280;18176;49.502;11.754;2023-03-03T00:46:36;97115.13;;;1.11;77.35
21185;BME280;18176;49.502;11.754;2023-03-03T00:50:42;97119.22;;;1.13;77.37
21185;BME280;18176;49.502;11.754;2023-03-03T00:54:46;97122.28;;;1.25;76.73
21185;BME280;18176;49.502;11.754;2023-03-03T00:58:46;97118.19;;;1.22;76.95
21185;BME280;18176;49.502;11.754;2023-03-03T01:02:52;97115.63;;;1.14;76.74
21185;BME280;18176;49.502;11.754;2023-03-03T01:06:53;97110.09;;;1.09;77.05
21185;BME280;18176;49.502;11.754;2023-03-03T01:10:57;97115.50;;;1.08;76.92
21185;BME280;18176;49.502;11.754;2023-03-03T01:14:59;97110.59;;;1.13;76.63
21185;BME280;18176;49.502;11.754;2023-03-03T01:19:03;97099.19;;;0.98;77.32
21185;BME280;18176;49.502;11.754;2023-03-03T01:23:06;97100.81;;;0.99;77.44
21185;BME280;18176;49.502;11.754;2023-03-03T01:27:07;97110.94;;;0.86;77.68
21185;BME280;18176;49.502;11.754;2023-03-03T01:31:08;97107.69;;;0.84;77.43
21185;BME280;18176;49.502;11.754;2023-03-03T01:35:14;97103.97;;;0.78;77.71
21185;BME280;18176;49.502;11.754;2023-03-03T01:39:15;97101.50;;;0.77;78.04
21185;BME280;18176;49.502;11.754;2023-03-03T01:43:15;97091.59;;;0.64;78.08
21185;BME280;18176;49.502;11.754;2023-03-03T01:47:20;97106.72;;;0.60;78.41
21185;BME280;18176;49.502;11.754;2023-03-03T01:51:28;97098.09;;;0.52;78.61
21185;BME280;18176;49.502;11.754;2023-03-03T01:55:35;97097.59;;;0.56;78.00
21185;BME280;18176;49.502;11.754;2023-03-03T01:59:44;97100.53;;;0.53;77.76
21185;BME280;18176;49.502;11.754;2023-03-03T02:03:47;97095.97;;;0.47;78.08
21185;BME280;18176;49.502;11.754;2023-03-03T02:07:51;97086.53;;;0.38;78.65
21185;BME280;18176;49.502;11.754;2023-03-03T02:11:57;97096.28;;;0.44;78.62
21185;BME280;18176;49.502;11.754;2023-03-03T02:15:59;97087.19;;;0.48;78.43
21185;BME280;18176;49.502;11.754;2023-03-03T02:20:06;97087.81;;;0.42;78.54
21185;BME280;18176;49.502;11.754;2023-03-03T02:24:22;97097.63;;;0.32;79.36
21185;BME280;18176;49.502;11.754;2023-03-03T02:28:31;97091.72;;;0.22;79.52
21185;BME280;18176;49.502;11.754;2023-03-03T02:32:36;97104.25;;;0.19;80.27
21185;BME280;18176;49.502;11.754;2023-03-03T02:36:38;97091.41;;;0.09;79.87
21185;BME280;18176;49.502;11.754;2023-03-03T02:40:46;97094.78;;;0.02;80.27
21185;BME280;18176;49.502;11.754;2023-03-03T02:44:54;97091.03;;;-0.04;81.01
21185;BME280;18176;49.502;11.754;2023-03-03T02:48:54;97095.75;;;0.00;80.91
21185;BME280;18176;49.502;11.754;2023-03-03T02:52:55;97098.69;;;0.06;80.71
21185;BME280;18176;49.502;11.754;2023-03-03T02:56:56;97089.75;;;0.08;80.57
21185;BME280;18176;49.502;11.754;2023-03-03T03:00:59;97105.38;;;0.00;81.21
21185;BME280;18176;49.502;11.754;2023-03-03T03:05:00;97098.69;;;0.06;81.15
21185;BME280;18176;49.502;11.754;2023-03-03T03:09:02;97089.72;;;-0.08;81.28
21185;BME280;18176;49.502;11.754;2023-03-03T03:13:03;97101.41;;;-0.20;81.62
21185;BME280;18176;49.502;11.754;2023-03-03T03:17:06;97093.91;;;-0.31;82.32
21185;BME280;18176;49.502;11.754;2023-03-03T03:21:10;97094.84;;;-0.40;83.17
21185;BME280;18176;49.502;11.754;2023-03-03T03:25:12;97040.38;;;-0.84;83.47
21185;BME280;18176;49.502;11.754;2023-03-03T03:29:13;97101.28;;;-0.60;84.27
21185;BME280;18176;49.502;11.754;2023-03-03T03:33:17;97094.78;;;-0.56;84.21
21185;BME280;18176;49.502;11.754;2023-03-03T03:37:18;97096.56;;;-0.57;83.89
21185;BME280;18176;49.502;11.754;2023-03-03T03:41:19;97108.16;;;-0.51;84.21
21185;BME280;18176;49.502;11.754;2023-03-03T03:45:23;97099.03;;;-0.47;83.54
21185;BME280;18176;49.502;11.754;2023-03-03T03:49:27;97107.56;;;-0.29;82.63
21185;BME280;18176;49.502;11.754;2023-03-03T03:53:28;97104.66;;;-0.18;81.74
21185;BME280;18176;49.502;11.754;2023-03-03T03:57:29;97107.00;;;-0.07;80.96
21185;BME280;18176;49.502;11.754;2023-03-03T04:01:29;97110.63;;;0.16;79.87
21185;BME280;18176;49.502;11.754;2023-03-03T04:05:33;97104.22;;;0.03;79.62
21185;BME280;18176;49.502;11.754;2023-03-03T04:09:35;97106.78;;;-0.14;80.01
21185;BME280;18176;49.502;11.754;2023-03-03T04:13:36;97117.38;;;-0.23;80.16
21185;BME280;18176;49.502;11.754;2023-03-03T04:17:39;97110.94;;;-0.37;80.36
21185;BME280;18176;49.502;11.754;2023-03-03T04:21:43;97117.91;;;-0.45;81.06
21185;BME280;18176;49.502;11.754;2023-03-03T04:25:45;97114.34;;;-0.44;81.19
21185;BME280;18176;49.502;11.754;2023-03-03T04:29:48;97115.78;;;-0.50;81.56
21185;BME280;18176;49.502;11.754;2023-03-03T04:33:49;97121.63;;;-0.56;81.52
21185;BME280;18176;49.502;11.754;2023-03-03T04:37:56;97128.88;;;-0.67;81.81
21185;BME280;18176;49.502;11.754;2023-03-03T04:41:57;97126.41;;;-0.69;81.71
21185;BME280;18176;49.502;11.754;2023-03-03T04:45:58;97127.56;;;-0.72;82.60
21185;BME280;18176;49.502;11.754;2023-03-03T04:50:00;97130.63;;;-0.76;82.63
21185;BME280;18176;49.502;11.754;2023-03-03T04:54:05;97123.13;;;-0.79;83.27
21185;BME280;18176;49.502;11.754;2023-03-03T04:58:08;97112.47;;;-0.94;83.29
21185;BME280;18176;49.502;11.754;2023-03-03T05:02:09;97124.53;;;-0.93;82.99
21185;BME280;18176;49.502;11.754;2023-03-03T05:06:11;97129.81;;;-1.02;83.25
21185;BME280;18176;49.502;11.754;2023-03-03T05:10:16;97127.53;;;-1.05;83.76
21185;BME280;18176;49.502;11.754;2023-03-03T05:14:17;97124.44;;;-1.09;84.66
21185;BME280;18176;49.502;11.754;2023-03-03T05:18:19;97115.91;;;-1.19;84.02
21185;BME280;18176;49.502;11.754;2023-03-03T05:22:19;97135.41;;;-1.15;84.00
21185;BME280;18176;49.502;11.754;2023-03-03T05:26:22;97131.50;;;-1.19;84.25
21185;BME280;18176;49.502;11.754;2023-03-03T05:30:23;97142.16;;;-1.30;84.46
21185;BME280;18176;49.502;11.754;2023-03-03T05:34:24;97142.34;;;-1.23;85.35
21185;BME280;18176;49.502;11.754;2023-03-03T05:38:25;97144.28;;;-1.25;85.21
21185;BME280;18176;49.502;11.754;2023-03-03T05:42:29;97144.94;;;-1.23;85.55
21185;BME280;18176;49.502;11.754;2023-03-03T05:46:31;97147.38;;;-1.22;85.61
21185;BME280;18176;49.502;11.754;2023-03-03T05:50:32;97146.44;;;-1.21;85.34
21185;BME280;18176;49.502;11.754;2023-03-03T05:54:33;97151.13;;;-1.24;85.05
21185;BME280;18176;49.502;11.754;2023-03-03T05:58:36;97161.91;;;-1.37;85.32
21185;BME280;18176;49.502;11.754;2023-03-03T06:02:41;97162.66;;;-1.27;86.46
21185;BME280;18176;49.502;11.754;2023-03-03T06:06:42;97162.81;;;-1.03;86.09
21185;BME280;18176;49.502;11.754;2023-03-03T06:10:43;97169.09;;;-0.88;85.33
21185;BME280;18176;49.502;11.754;2023-03-03T06:14:47;97173.16;;;-0.85;84.55
21185;BME280;18176;49.502;11.754;2023-03-03T06:18:48;97176.56;;;-0.85;84.85
21185;BME280;18176;49.502;11.754;2023-03-03T06:22:48;97176.38;;;-0.65;87.64
21185;BME280;18176;49.502;11.754;2023-03-03T06:26:52;97191.16;;;-0.40;87.98
21185;BME280;18176;49.502;11.754;2023-03-03T06:30:56;97191.28;;;-0.16;87.11
21185;BME280;18176;49.502;11.754;2023-03-03T06:34:57;97204.72;;;-0.21;85.25
21185;BME280;18176;49.502;11.754;2023-03-03T06:38:57;97199.41;;;-0.11;84.72
21185;BME280;18176;49.502;11.754;2023-03-03T06:42:58;97195.47;;;-0.23;84.86
21185;BME280;18176;49.502;11.754;2023-03-03T06:47:02;97191.53;;;-0.27;83.54
21185;BME280;18176;49.502;11.754;2023-03-03T06:51:19;97203.59;;;-0.18;83.80
21185;BME280;18176;49.502;11.754;2023-03-03T06:55:22;97209.53;;;-0.08;83.34
21185;BME280;18176;49.502;11.754;2023-03-03T06:59:26;97212.03;;;0.10;82.78
21185;BME280;18176;49.502;11.754;2023-03-03T07:03:33;97212.25;;;0.24;82.24
21185;BME280;18176;49.502;11.754;2023-03-03T07:07:35;97221.44;;;0.52;81.43
21185;BME280;18176;49.502;11.754;2023-03-03T07:11:36;97222.13;;;0.87;79.93
21185;BME280;18176;49.502;11.754;2023-03-03T07:15:38;97229.44;;;1.39;78.07
21185;BME280;18176;49.502;11.754;2023-03-03T07:19:43;97223.66;;;1.68;76.61
21185;BME280;18176;49.502;11.754;2023-03-03T07:23:46;97214.22;;;2.14;75.59
21185;BME280;18176;49.502;11.754;2023-03-03T07:27:47;97197.66;;;2.52;73.67
21185;BME280;18176;49.502;11.754;2023-03-03T07:31:48;97227.91;;;3.00;72.23
21185;BME280;18176;49.502;11.754;2023-03-03T07:35:55;97229.38;;;3.40;70.40
21185;BME280;18176;49.502;11.754;2023-03-03T07:39:57;97245.63;;;3.73;68.30
21185;BME280;18176;49.502;11.754;2023-03-03T07:44:05;97242.88;;;3.66;67.38
21185;BME280;18176;49.502;11.754;2023-03-03T07:48:23;97249.72;;;3.52;67.49
21185;BME280;18176;49.502;11.754;2023-03-03T07:52:47;97257.28;;;3.70;67.24
21185;BME280;18176;49.502;11.754;2023-03-03T07:56:55;97268.03;;;3.90;66.52
21185;BME280;18176;49.502;11.754;2023-03-03T08:01:37;97278.72;;;4.03;66.10
21185;BME280;18176;49.502;11.754;2023-03-03T08:05:41;97276.91;;;4.18;65.03
21185;BME280;18176;49.502;11.754;2023-03-03T08:09:48;97284.66;;;4.26;64.55
21185;BME280;18176;49.502;11.754;2023-03-03T08:13:53;97285.59;;;4.18;64.33
21185;BME280;18176;49.502;11.754;2023-03-03T08:17:55;97281.50;;;4.31;64.31
21185;BME280;18176;49.502;11.754;2023-03-03T08:22:01;97284.19;;;4.52;63.26
21185;BME280;18176;49.502;11.754;2023-03-03T08:26:10;97284.47;;;4.57;62.68
21185;BME280;18176;49.502;11.754;2023-03-03T08:30:12;97288.28;;;4.54;62.79
21185;BME280;18176;49.502;11.754;2023-03-03T08:34:13;97283.06;;;4.90;63.15
21185;BME280;18176;49.502;11.754;2023-03-03T08:38:17;97278.63;;;5.33;61.60
21185;BME280;18176;49.502;11.754;2023-03-03T08:42:21;97278.88;;;5.59;60.41
21185;BME280;18176;49.502;11.754;2023-03-03T08:46:22;97275.97;;;6.03;58.47
21185;BME280;18176;49.502;11.754;2023-03-03T08:50:23;97265.63;;;6.35;56.39
21185;BME280;18176;49.502;11.754;2023-03-03T08:54:24;97262.97;;;6.76;55.92
21185;BME280;18176;49.502;11.754;2023-03-03T08:58:28;97260.69;;;7.27;54.32
21185;BME280;18176;49.502;11.754;2023-03-03T09:02:33;97262.31;;;7.54;52.88
21185;BME280;18176;49.502;11.754;2023-03-03T09:06:34;97264.56;;;7.57;52.31
21185;BME280;18176;49.502;11.754;2023-03-03T09:10:36;97269.19;;;7.49;52.70
21185;BME280;18176;49.502;11.754;2023-03-03T09:14:43;97260.91;;;7.45;52.40
21185;BME280;18176;49.502;11.754;2023-03-03T09:18:44;97264.75;;;7.49;51.48
21185;BME280;18176;49.502;11.754;2023-03-03T09:22:44;97273.66;;;7.74;51.75
21185;BME280;18176;49.502;11.754;2023-03-03T09:26:46;97272.63;;;8.02;51.64
21185;BME280;18176;49.502;11.754;2023-03-03T09:30:54;97275.44;;;8.20;50.27
21185;BME280;18176;49.502;11.754;2023-03-03T09:34:56;97274.34;;;8.60;50.03
21185;BME280;18176;49.502;11.754;2023-03-03T09:38:58;97268.22;;;9.10;48.57
21185;BME280;18176;49.502;11.754;2023-03-03T09:43:04;97275.50;;;9.53;46.94
21185;BME280;18176;49.502;11.754;2023-03-03T09:47:34;97281.31;;;9.86;46.72
21185;BME280;18176;49.502;11.754;2023-03-03T09:51:55;97276.53;;;10.62;45.66
21185;BME280;18176;49.502;11.754;2023-03-03T09:56:09;97261.00;;;10.66;44.18
21185;BME280;18176;49.502;11.754;2023-03-03T10:00:39;97280.72;;;11.17;44.33
21185;BME280;18176;49.502;11.754;2023-03-03T10:14:17;97264.66;;;11.83;41.84
21185;BME280;18176;49.502;11.754;2023-03-03T10:18:34;97270.09;;;12.46;40.84
21185;BME280;18176;49.502;11.754;2023-03-03T10:22:51;97264.91;;;12.91;39.04
21185;BME280;18176;49.502;11.754;2023-03-03T10:27:16;97267.81;;;12.78;38.88
21185;BME280;18176;49.502;11.754;2023-03-03T10:31:31;97272.56;;;13.27;38.01
21185;BME280;18176;49.502;11.754;2023-03-03T10:35:57;97276.63;;;13.47;37.37
21185;BME280;18176;49.502;11.754;2023-03-03T10:40:21;97278.81;;;13.50;37.21
21185;BME280;18176;49.502;11.754;2023-03-03T10:44:49;97279.88;;;13.65;37.04
21185;BME280;18176;49.502;11.754;2023-03-03T10:49:19;97278.34;;;14.19;36.32
21185;BME280;18176;49.502;11.754;2023-03-03T10:53:28;97277.91;;;15.47;35.05
21185;BME280;18176;49.502;11.754;2023-03-03T10:57:44;97270.28;;;15.92;33.38
21185;BME280;18176;49.502;11.754;2023-03-03T11:01:54;97282.53;;;16.57;33.40
21185;BME280;18176;49.502;11.754;2023-03-03T11:06:00;97281.56;;;16.36;32.56
21185;BME280;18176;49.502;11.754;2023-03-03T11:10:23;97288.75;;;16.67;32.47
21185;BME280;18176;49.502;11.754;2023-03-03T11:14:36;97277.38;;;16.50;32.33
21185;BME280;18176;49.502;11.754;2023-03-03T11:19:06;97276.13;;;16.63;33.42
21185;BME280;18176;49.502;11.754;2023-03-03T11:23:40;97276.00;;;17.97;30.22
21185;BME280;18176;49.502;11.754;2023-03-03T11:28:09;97267.16;;;17.91;30.67
21185;BME280;18176;49.502;11.754;2023-03-03T11:32:26;97263.69;;;18.06;29.86
21185;BME280;18176;49.502;11.754;2023-03-03T11:36:38;97255.09;;;18.14;29.51
21185;BME280;18176;49.502;11.754;2023-03-03T11:40:48;97261.00;;;18.01;30.44
21185;BME280;18176;49.502;11.754;2023-03-03T11:44:55;97233.63;;;18.29;29.26
21185;BME280;18176;49.502;11.754;2023-03-03T11:49:06;97239.41;;;18.76;29.66
21185;BME280;18176;49.502;11.754;2023-03-03T11:53:49;97231.66;;;19.29;28.86
21185;BME280;18176;49.502;11.754;2023-03-03T11:58:01;97228.88;;;19.83;28.78
21185;BME280;18176;49.502;11.754;2023-03-03T12:02:26;97202.47;;;19.56;28.17
21185;BME280;18176;49.502;11.754;2023-03-03T12:06:52;97215.00;;;20.04;27.47
21185;BME280;18176;49.502;11.754;2023-03-03T12:11:24;97211.53;;;20.80;27.11
21185;BME280;18176;49.502;11.754;2023-03-03T12:15:37;97208.53;;;21.80;25.82
21185;BME280;18176;49.502;11.754;2023-03-03T12:19:50;97199.41;;;21.43;25.45
21185;BME280;18176;49.502;11.754;2023-03-03T12:24:25;97192.75;;;21.36;26.38
21185;BME280;18176;49.502;11.754;2023-03-03T12:28:41;97186.75;;;21.57;26.10
21185;BME280;18176;49.502;11.754;2023-03-03T12:33:01;97174.28;;;22.26;24.95
21185;BME280;18176;49.502;11.754;2023-03-03T12:37:20;97183.03;;;22.77;24.26
21185;BME280;18176;49.502;11.754;2023-03-03T12:41:39;97180.06;;;23.15;24.25
21185;BME280;18176;49.502;11.754;2023-03-03T12:45:54;97180.72;;;23.34;24.62
21185;BME280;18176;49.502;11.754;2023-03-03T12:50:32;97174.75;;;23.10;23.94
21185;BME280;18176;49.502;11.754;2023-03-03T12:55:03;97169.50;;;22.50;24.69
21185;BME280;18176;49.502;11.754;2023-03-03T12:59:20;97172.50;;;22.49;25.39
21185;BME280;18176;49.502;11.754;2023-03-03T13:03:38;97171.03;;;22.83;24.78
21185;BME280;18176;49.502;11.754;2023-03-03T13:08:10;97172.16;;;23.18;24.38
21185;BME280;18176;49.502;11.754;2023-03-03T13:12:30;97168.09;;;23.43;23.82
21185;BME280;18176;49.502;11.754;2023-03-03T13:16:40;97167.75;;;23.58;23.87
21185;BME280;18176;49.502;11.754;2023-03-03T13:21:00;97172.41;;;23.44;24.21
21185;BME280;18176;49.502;11.754;2023-03-03T13:25:18;97158.94;;;22.67;24.51
21185;BME280;18176;49.502;11.754;2023-03-03T13:29:26;97158.28;;;22.43;24.58
21185;BME280;18176;49.502;11.754;2023-03-03T13:33:34;97158.84;;;21.99;25.02
21185;BME280;18176;49.502;11.754;2023-03-03T13:37:41;97154.50;;;22.30;24.24
21185;BME280;18176;49.502;11.754;2023-03-03T13:41:50;97144.94;;;22.06;24.40
21185;BME280;18176;49.502;11.754;2023-03-03T13:46:08;97152.47;;;22.50;24.58
21185;BME280;18176;49.502;11.754;2023-03-03T13:50:21;97149.09;;;22.44;24.48
21185;BME280;18176;49.502;11.754;2023-03-03T13:54:55;97146.41;;;22.71;23.82
21185;BME280;18176;49.502;11.754;2023-03-03T13:59:14;97145.69;;;22.25;23.71
21185;BME280;18176;49.502;11.754;2023-03-03T14:03:40;97140.44;;;22.01;24.41
21185;BME280;18176;49.502;11.754;2023-03-03T14:07:55;97138.66;;;21.46;24.56
21185;BME280;18176;49.502;11.754;2023-03-03T14:12:05;97129.88;;;21.03;25.29
21185;BME280;18176;49.502;11.754;2023-03-03T14:16:21;97134.38;;;21.45;24.81
21185;BME280;18176;49.502;11.754;2023-03-03T14:20:34;97122.38;;;21.37;24.63
21185;BME280;18176;49.502;11.754;2023-03-03T14:25:12;97127.56;;;21.15;25.31
21185;BME280;18176;49.502;11.754;2023-03-03T14:29:22;97125.63;;;21.85;24.52
21185;BME280;18176;49.502;11.754;2023-03-03T14:33:30;97110.50;;;22.03;23.83
21185;BME280;18176;49.502;11.754;2023-03-03T14:37:43;97117.19;;;22.19;24.43
21185;BME280;18176;49.502;11.754;2023-03-03T14:41:46;97112.28;;;22.34;23.95
21185;BME280;18176;49.502;11.754;2023-03-03T14:45:49;97112.59;;;21.74;24.09
21185;BME280;18176;49.502;11.754;2023-03-03T14:49:55;97101.66;;;21.84;24.00
21185;BME280;18176;49.502;11.754;2023-03-03T14:54:00;97104.06;;;21.66;24.27
21185;BME280;18176;49.502;11.754;2023-03-03T14:58:07;97104.75;;;20.89;24.43
21185;BME280;18176;49.502;11.754;2023-03-03T15:02:41;97103.59;;;20.95;25.01
21185;BME280;18176;49.502;11.754;2023-03-03T15:06:45;97099.50;;;21.16;24.74
21185;BME280;18176;49.502;11.754;2023-03-03T15:10:48;97092.63;;;21.10;24.41
21185;BME280;18176;49.502;11.754;2023-03-03T15:15:01;97090.00;;;21.05;24.06
21185;BME280;18176;49.502;11.754;2023-03-03T15:19:39;97096.66;;;20.89;24.23
21185;BME280;18176;49.502;11.754;2023-03-03T15:23:57;97098.91;;;19.92;25.33
21185;BME280;18176;49.502;11.754;2023-03-03T15:28:19;97094.97;;;19.56;26.35
21185;BME280;18176;49.502;11.754;2023-03-03T15:32:29;97101.56;;;19.40;27.80
21185;BME280;18176;49.502;11.754;2023-03-03T15:36:41;97104.25;;;19.35;28.18
21185;BME280;18176;49.502;11.754;2023-03-03T15:40:50;97103.28;;;19.21;28.52
21185;BME280;18176;49.502;11.754;2023-03-03T15:45:04;97102.72;;;19.24;28.48
21185;BME280;18176;49.502;11.754;2023-03-03T15:49:29;97110.00;;;18.10;29.72
21185;BME280;18176;49.502;11.754;2023-03-03T15:54:01;97113.59;;;17.35;30.32
21185;BME280;18176;49.502;11.754;2023-03-03T15:58:37;97107.09;;;16.86;30.69
21185;BME280;18176;49.502;11.754;2023-03-03T16:02:51;97109.56;;;16.26;31.89
21185;BME280;18176;49.502;11.754;2023-03-03T16:07:05;97115.22;;;15.82;32.20
21185;BME280;18176;49.502;11.754;2023-03-03T16:11:15;97123.84;;;15.53;32.58
21185;BME280;18176;49.502;11.754;2023-03-03T16:15:36;97127.88;;;14.97;33.38
21185;BME280;18176;49.502;11.754;2023-03-03T16:19:49;97134.59;;;14.51;33.79
21185;BME280;18176;49.502;11.754;2023-03-03T16:24:01;97130.28;;;14.28;34.22
21185;BME280;18176;49.502;11.754;2023-03-03T16:28:12;97137.50;;;13.89;34.85
21185;BME280;18176;49.502;11.754;2023-03-03T16:32:30;97148.91;;;13.52;35.42
21185;BME280;18176;49.502;11.754;2023-03-03T16:36:50;97151.22;;;12.98;36.48
21185;BME280;18176;49.502;11.754;2023-03-03T16:40:59;97160.88;;;12.48;37.62
21185;BME280;18176;49.502;11.754;2023-03-03T16:45:15;97165.94;;;11.98;39.19
21185;BME280;18176;49.502;11.754;2023-03-03T16:49:27;97169.34;;;11.17;40.47
21185;BME280;18176;49.502;11.754;2023-03-03T16:54:02;97182.69;;;10.51;41.86
21185;BME280;18176;49.502;11.754;2023-03-03T16:58:26;97192.09;;;9.93;42.64
21185;BME280;18176;49.502;11.754;2023-03-03T17:03:04;97210.00;;;9.48;43.42
21185;BME280;18176;49.502;11.754;2023-03-03T17:07:24;97213.31;;;9.12;43.18
21185;BME280;18176;49.502;11.754;2023-03-03T17:11:47;97221.06;;;8.76;43.81
21185;BME280;18176;49.502;11.754;2023-03-03T17:16:07;97225.25;;;8.46;43.21
21185;BME280;18176;49.502;11.754;2023-03-03T17:20:26;97205.47;;;7.98;43.81
21185;BME280;18176;49.502;11.754;2023-03-03T17:24:40;97242.44;;;7.85;44.37
21185;BME280;18176;49.502;11.754;2023-03-03T17:29:04;97240.81;;;7.57;45.38
21185;BME280;18176;49.502;11.754;2023-03-03T17:33:41;97246.06;;;7.25;46.13
21185;BME280;18176;49.502;11.754;2023-03-03T17:37:54;97258.59;;;7.03;47.06
21185;BME280;18176;49.502;11.754;2023-03-03T17:42:07;97255.72;;;6.85;47.48
21185;BME280;18176;49.502;11.754;2023-03-03T17:46:21;97262.53;;;6.73;47.38
21185;BME280;18176;49.502;11.754;2023-03-03T17:55:35;97278.88;;;6.49;48.99
21185;BME280;18176;49.502;11.754;2023-03-03T17:59:57;97274.69;;;6.61;47.52
21185;BME280;18176;49.502;11.754;2023-03-03T18:08:56;97279.16;;;6.67;47.71
21185;BME280;18176;49.502;11.754;2023-03-03T18:13:29;97291.22;;;6.55;46.62
21185;BME280;18176;49.502;11.754;2023-03-03T18:22:08;97280.97;;;6.25;47.14
21185;BME280;18176;49.502;11.754;2023-03-03T18:26:37;97287.41;;;6.16;47.78
21185;BME280;18176;49.502;11.754;2023-03-03T18:30:56;97288.91;;;5.98;48.19
21185;BME280;18176;49.502;11.754;2023-03-03T18:35:23;97278.69;;;5.88;48.55
21185;BME280;18176;49.502;11.754;2023-03-03T18:39:41;97286.31;;;5.83;49.35
21185;BME280;18176;49.502;11.754;2023-03-03T18:43:57;97265.09;;;5.57;50.23
21185;BME280;18176;49.502;11.754;2023-03-03T18:48:09;97280.91;;;5.63;50.45
21185;BME280;18176;49.502;11.754;2023-03-03T18:52:20;97285.00;;;5.66;50.63
21185;BME280;18176;49.502;11.754;2023-03-03T18:56:43;97290.88;;;5.47;52.02
21185;BME280;18176;49.502;11.754;2023-03-03T19:00:50;97291.19;;;5.37;51.89
21185;BME280;18176;49.502;11.754;2023-03-03T19:04:55;97291.91;;;5.25;52.40
21185;BME280;18176;49.502;11.754;2023-03-03T19:09:05;97294.25;;;4.98;52.98
21185;BME280;18176;49.502;11.754;2023-03-03T19:17:57;97303.25;;;4.75;54.46
21185;BME280;18176;49.502;11.754;2023-03-03T19:22:21;97301.22;;;4.56;55.74
21185;BME280;18176;49.502;11.754;2023-03-03T19:31:10;97305.66;;;4.26;56.50
21185;BME280;18176;49.502;11.754;2023-03-03T19:35:30;97279.44;;;3.97;56.85
21185;BME280;18176;49.502;11.754;2023-03-03T19:39:45;97314.34;;;4.12;57.91
21185;BME280;18176;49.502;11.754;2023-03-03T19:44:07;97322.47;;;4.02;58.01
21185;BME280;18176;49.502;11.754;2023-03-03T19:48:23;97313.47;;;3.82;58.72
21185;BME280;18176;49.502;11.754;2023-03-03T19:52:36;97317.34;;;3.72;59.02
21185;BME280;18176;49.502;11.754;2023-03-03T19:56:45;97317.50;;;3.55;59.69
21185;BME280;18176;49.502;11.754;2023-03-03T20:00:54;97317.28;;;3.42;60.86
21185;BME280;18176;49.502;11.754;2023-03-03T20:05:15;97319.50;;;3.31;60.46
21185;BME280;18176;49.502;11.754;2023-03-03T20:09:32;97328.84;;;3.25;61.62
21185;BME280;18176;49.502;11.754;2023-03-03T20:13:49;97330.91;;;3.15;61.68
21185;BME280;18176;49.502;11.754;2023-03-03T20:18:39;97335.28;;;2.92;63.50
21185;BME280;18176;49.502;11.754;2023-03-03T20:22:52;97343.50;;;2.81;63.32
21185;BME280;18176;49.502;11.754;2023-03-03T20:27:03;97345.25;;;2.58;64.20
21185;BME280;18176;49.502;11.754;2023-03-03T20:31:15;97355.41;;;2.53;64.51
21185;BME280;18176;49.502;11.754;2023-03-03T20:35:31;97360.69;;;2.37;65.56
21185;BME280;18176;49.502;11.754;2023-03-03T20:39:52;97357.13;;;2.22;66.68
21185;BME280;18176;49.502;11.754;2023-03-03T20:44:13;97364.00;;;2.23;66.70
21185;BME280;18176;49.502;11.754;2023-03-03T20:53:02;97375.75;;;2.35;67.11
21185;BME280;18176;49.502;11.754;2023-03-03T20:57:15;97334.59;;;2.21;67.26
21185;BME280;18176;49.502;11.754;2023-03-03T21:01:31;97367.91;;;2.35;67.56
21185;BME280;18176;49.502;11.754;2023-03-03T21:05:56;97371.53;;;2.26;68.02
21185;BME280;18176;49.502;11.754;2023-03-03T21:10:11;97366.00;;;2.04;68.44
21185;BME280;18176;49.502;11.754;2023-03-03T21:14:19;97374.97;;;1.94;69.41
21185;BME280;18176;49.502;11.754;2023-03-03T21:18:25;97379.91;;;1.81;70.21
21185;BME280;18176;49.502;11.754;2023-03-03T21:22:26;97371.25;;;1.72;70.34
21185;BME280;18176;49.502;11.754;2023-03-03T21:26:52;97366.19;;;1.63;71.29
21185;BME280;18176;49.502;11.754;2023-03-03T21:31:13;97363.06;;;1.59;71.19
21185;BME280;18176;49.502;11.754;2023-03-03T21:35:19;97361.44;;;1.50;71.33
21185;BME280;18176;49.502;11.754;2023-03-03T21:39:28;97356.88;;;1.44;72.18
21185;BME280;18176;49.502;11.754;2023-03-03T21:43:33;97358.53;;;1.45;72.00
21185;BME280;18176;49.502;11.754;2023-03-03T21:47:34;97356.72;;;1.37;72.33
21185;BME280;18176;49.502;11.754;2023-03-03T21:51:38;97357.84;;;1.35;72.34
21185;BME280;18176;49.502;11.754;2023-03-03T21:55:38;97356.22;;;1.26;72.69
21185;BME280;18176;49.502;11.754;2023-03-03T21:59:45;97354.22;;;1.20;73.13
21185;BME280;18176;49.502;11.754;2023-03-03T22:03:45;97352.94;;;1.16;73.67
21185;BME280;18176;49.502;11.754;2023-03-03T22:07:49;97349.66;;;1.14;74.45
21185;BME280;18176;49.502;11.754;2023-03-03T22:11:50;97361.41;;;1.10;74.64
21185;BME280;18176;49.502;11.754;2023-03-03T22:15:51;97351.75;;;1.02;75.41
21185;BME280;18176;49.502;11.754;2023-03-03T22:19:52;97349.31;;;1.01;75.62
21185;BME280;18176;49.502;11.754;2023-03-03T22:23:56;97350.59;;;0.81;76.48
21185;BME280;18176;49.502;11.754;2023-03-03T22:27:57;97353.19;;;0.81;76.58
21185;BME280;18176;49.502;11.754;2023-03-03T22:31:58;97345.03;;;0.76;76.95
21185;BME280;18176;49.502;11.754;2023-03-03T22:35:59;97346.97;;;0.74;77.09